sensor_id;sensor_type;location;lat;lon;timestamp;P1;durP1;ratioP1;P2;durP2;ratioP2
56581;SDS011;42463;52.214;21.238;2022-12-20T00:01:08;49.80;;;19.50;;
56581;SDS011;42463;52.214;21.238;2022-12-20T00:03:35;41.50;;;16.30;;
56581;SDS011;42463;52.214;21.238;2022-12-20T00:06:00;44.90;;;18.80;;
56581;SDS011;42463;52.214;21.238;2022-12-20T00:08:26;47.80;;;17.50;;
56581;SDS011;42463;52.214;21.238;2022-12-20T00:10:50;44.00;;;18.40;;
56581;SDS011;42463;52.214;21.238;2022-12-20T00:13:16;47.60;;;19.40;;
56581;SDS011;42463;52.214;21.238;2022-12-20T00:15:41;43.80;;;17.60;;
56581;SDS011;42463;52.214;21.238;2022-12-20T00:18:06;49.50;;;19.20;;
56581;SDS011;42463;52.214;21.238;2022-12-20T00:20:31;55.80;;;20.10;;
56581;SDS011;42463;52.214;21.238;2022-12-20T00:23:00;50.70;;;18.00;;
56581;SDS011;42463;52.214;21.238;2022-12-20T00:25:30;47.70;;;18.10;;
56581;SDS011;42463;52.214;21.238;2022-12-20T00:27:55;38.60;;;15.60;;
56581;SDS011;42463;52.214;21.238;2022-12-20T00:30:20;44.00;;;16.60;;
56581;SDS011;42463;52.214;21.238;2022-12-20T00:32:44;43.60;;;15.70;;
56581;SDS011;42463;52.214;21.238;2022-12-20T00:35:09;46.90;;;18.80;;
56581;SDS011;42463;52.214;21.238;2022-12-20T00:37:34;47.50;;;17.40;;
56581;SDS011;42463;52.214;21.238;2022-12-20T00:39:59;45.50;;;16.40;;
56581;SDS011;42463;52.214;21.238;2022-12-20T00:42:26;47.60;;;17.10;;
56581;SDS011;42463;52.214;21.238;2022-12-20T00:44:52;45.50;;;18.30;;
56581;SDS011;42463;52.214;21.238;2022-12-20T00:47:17;39.00;;;16.90;;
56581;SDS011;42463;52.214;21.238;2022-12-20T00:49:44;48.00;;;19.50;;
56581;SDS011;42463;52.214;21.238;2022-12-20T00:52:09;39.80;;;17.10;;
56581;SDS011;42463;52.214;21.238;2022-12-20T00:54:34;39.10;;;16.20;;
56581;SDS011;42463;52.214;21.238;2022-12-20T00:56:59;44.10;;;17.90;;
56581;SDS011;42463;52.214;21.238;2022-12-20T00:59:24;51.90;;;19.70;;
56581;SDS011;42463;52.214;21.238;2022-12-20T01:01:48;39.70;;;17.20;;
56581;SDS011;42463;52.214;21.238;2022-12-20T01:04:15;47.90;;;18.00;;
56581;SDS011;42463;52.214;21.238;2022-12-20T01:06:40;43.00;;;16.50;;
56581;SDS011;42463;52.214;21.238;2022-12-20T01:09:06;44.30;;;18.40;;
56581;SDS011;42463;52.214;21.238;2022-12-20T01:11:33;45.40;;;17.50;;
56581;SDS011;42463;52.214;21.238;2022-12-20T01:14:00;34.00;;;14.40;;
56581;SDS011;42463;52.214;21.238;2022-12-20T01:16:27;49.00;;;19.60;;
56581;SDS011;42463;52.214;21.238;2022-12-20T01:18:55;48.80;;;17.40;;
56581;SDS011;42463;52.214;21.238;2022-12-20T01:21:21;49.50;;;19.30;;
56581;SDS011;42463;52.214;21.238;2022-12-20T01:23:47;42.60;;;16.70;;
56581;SDS011;42463;52.214;21.238;2022-12-20T01:26:13;47.00;;;19.00;;
56581;SDS011;42463;52.214;21.238;2022-12-20T01:28:43;42.00;;;18.00;;
56581;SDS011;42463;52.214;21.238;2022-12-20T01:31:11;50.00;;;19.30;;
56581;SDS011;42463;52.214;21.238;2022-12-20T01:33:41;42.90;;;18.20;;
56581;SDS011;42463;52.214;21.238;2022-12-20T01:36:07;44.90;;;17.60;;
56581;SDS011;42463;52.214;21.238;2022-12-20T01:38:38;36.10;;;14.20;;
56581;SDS011;42463;52.214;21.238;2022-12-20T01:41:05;46.50;;;18.10;;
56581;SDS011;42463;52.214;21.238;2022-12-20T01:46:11;40.70;;;15.80;;
56581;SDS011;42463;52.214;21.238;2022-12-20T01:48:38;40.80;;;17.50;;
56581;SDS011;42463;52.214;21.238;2022-12-20T01:51:06;39.80;;;16.30;;
56581;SDS011;42463;52.214;21.238;2022-12-20T01:53:32;41.60;;;17.00;;
56581;SDS011;42463;52.214;21.238;2022-12-20T01:55:58;42.40;;;18.50;;
56581;SDS011;42463;52.214;21.238;2022-12-20T01:58:29;38.50;;;16.50;;
56581;SDS011;42463;52.214;21.238;2022-12-20T02:04:07;44.20;;;19.00;;
56581;SDS011;42463;52.214;21.238;2022-12-20T02:06:32;36.30;;;15.80;;
56581;SDS011;42463;52.214;21.238;2022-12-20T02:08:57;38.00;;;15.20;;
56581;SDS011;42463;52.214;21.238;2022-12-20T02:11:27;36.30;;;15.10;;
56581;SDS011;42463;52.214;21.238;2022-12-20T02:14:12;38.10;;;15.10;;
56581;SDS011;42463;52.214;21.238;2022-12-20T02:16:42;47.60;;;19.90;;
56581;SDS011;42463;52.214;21.238;2022-12-20T02:19:18;43.30;;;18.90;;
56581;SDS011;42463;52.214;21.238;2022-12-20T02:22:13;39.60;;;17.40;;
56581;SDS011;42463;52.214;21.238;2022-12-20T02:24:52;41.20;;;18.00;;
56581;SDS011;42463;52.214;21.238;2022-12-20T02:27:41;44.20;;;18.70;;
56581;SDS011;42463;52.214;21.238;2022-12-20T02:30:12;42.30;;;18.20;;
56581;SDS011;42463;52.214;21.238;2022-12-20T02:32:41;39.80;;;15.90;;
56581;SDS011;42463;52.214;21.238;2022-12-20T02:35:12;40.60;;;17.40;;
56581;SDS011;42463;52.214;21.238;2022-12-20T02:37:49;34.90;;;14.70;;
56581;SDS011;42463;52.214;21.238;2022-12-20T02:40:15;42.70;;;16.50;;
56581;SDS011;42463;52.214;21.238;2022-12-20T02:42:43;41.10;;;16.10;;
56581;SDS011;42463;52.214;21.238;2022-12-20T02:45:09;45.10;;;17.30;;
56581;SDS011;42463;52.214;21.238;2022-12-20T02:47:42;32.10;;;13.60;;
56581;SDS011;42463;52.214;21.238;2022-12-20T02:50:11;43.70;;;17.00;;
56581;SDS011;42463;52.214;21.238;2022-12-20T02:52:36;33.60;;;15.60;;
56581;SDS011;42463;52.214;21.238;2022-12-20T02:55:02;42.00;;;17.90;;
56581;SDS011;42463;52.214;21.238;2022-12-20T02:57:31;40.20;;;16.40;;
56581;SDS011;42463;52.214;21.238;2022-12-20T03:00:02;33.50;;;14.10;;
56581;SDS011;42463;52.214;21.238;2022-12-20T03:02:29;32.80;;;14.60;;
56581;SDS011;42463;52.214;21.238;2022-12-20T03:05:16;32.90;;;14.90;;
56581;SDS011;42463;52.214;21.238;2022-12-20T03:07:44;30.40;;;13.90;;
56581;SDS011;42463;52.214;21.238;2022-12-20T03:10:10;42.30;;;16.80;;
56581;SDS011;42463;52.214;21.238;2022-12-20T03:12:36;40.20;;;15.90;;
56581;SDS011;42463;52.214;21.238;2022-12-20T03:15:04;31.70;;;14.70;;
56581;SDS011;42463;52.214;21.238;2022-12-20T03:17:30;35.80;;;15.90;;
56581;SDS011;42463;52.214;21.238;2022-12-20T03:19:57;35.70;;;14.30;;
56581;SDS011;42463;52.214;21.238;2022-12-20T03:22:22;32.90;;;14.90;;
56581;SDS011;42463;52.214;21.238;2022-12-20T03:24:48;34.20;;;13.80;;
56581;SDS011;42463;52.214;21.238;2022-12-20T03:27:17;29.50;;;12.70;;
56581;SDS011;42463;52.214;21.238;2022-12-20T03:29:43;34.80;;;13.70;;
56581;SDS011;42463;52.214;21.238;2022-12-20T03:32:12;33.30;;;14.20;;
56581;SDS011;42463;52.214;21.238;2022-12-20T03:34:38;30.10;;;11.40;;
56581;SDS011;42463;52.214;21.238;2022-12-20T03:37:02;32.20;;;13.90;;
56581;SDS011;42463;52.214;21.238;2022-12-20T03:39:27;31.50;;;13.80;;
56581;SDS011;42463;52.214;21.238;2022-12-20T03:41:52;33.30;;;14.40;;
56581;SDS011;42463;52.214;21.238;2022-12-20T03:44:16;32.60;;;12.70;;
56581;SDS011;42463;52.214;21.238;2022-12-20T03:46:48;34.60;;;14.80;;
56581;SDS011;42463;52.214;21.238;2022-12-20T03:49:13;34.60;;;13.40;;
56581;SDS011;42463;52.214;21.238;2022-12-20T03:51:44;38.30;;;16.30;;
56581;SDS011;42463;52.214;21.238;2022-12-20T03:54:09;37.00;;;16.30;;
56581;SDS011;42463;52.214;21.238;2022-12-20T03:56:54;36.60;;;14.60;;
56581;SDS011;42463;52.214;21.238;2022-12-20T03:59:22;32.10;;;13.50;;
56581;SDS011;42463;52.214;21.238;2022-12-20T04:01:47;35.50;;;14.80;;
56581;SDS011;42463;52.214;21.238;2022-12-20T04:04:12;28.00;;;12.40;;
56581;SDS011;42463;52.214;21.238;2022-12-20T04:06:37;35.00;;;14.60;;
56581;SDS011;42463;52.214;21.238;2022-12-20T04:09:02;31.50;;;13.50;;
56581;SDS011;42463;52.214;21.238;2022-12-20T04:11:33;34.50;;;14.70;;
56581;SDS011;42463;52.214;21.238;2022-12-20T04:14:03;31.90;;;12.80;;
56581;SDS011;42463;52.214;21.238;2022-12-20T04:16:28;35.40;;;14.80;;
56581;SDS011;42463;52.214;21.238;2022-12-20T04:18:53;34.90;;;14.40;;
56581;SDS011;42463;52.214;21.238;2022-12-20T04:21:22;34.60;;;15.20;;
56581;SDS011;42463;52.214;21.238;2022-12-20T04:23:50;32.20;;;14.50;;
56581;SDS011;42463;52.214;21.238;2022-12-20T04:26:15;31.60;;;14.60;;
56581;SDS011;42463;52.214;21.238;2022-12-20T04:28:41;30.90;;;14.00;;
56581;SDS011;42463;52.214;21.238;2022-12-20T04:31:06;34.40;;;14.60;;
56581;SDS011;42463;52.214;21.238;2022-12-20T04:33:31;34.10;;;15.30;;
56581;SDS011;42463;52.214;21.238;2022-12-20T04:35:56;31.20;;;14.10;;
56581;SDS011;42463;52.214;21.238;2022-12-20T04:38:21;24.50;;;10.40;;
56581;SDS011;42463;52.214;21.238;2022-12-20T04:40:48;32.50;;;13.80;;
56581;SDS011;42463;52.214;21.238;2022-12-20T04:43:14;35.80;;;15.40;;
56581;SDS011;42463;52.214;21.238;2022-12-20T04:45:39;32.80;;;13.70;;
56581;SDS011;42463;52.214;21.238;2022-12-20T04:48:05;27.10;;;12.80;;
56581;SDS011;42463;52.214;21.238;2022-12-20T04:50:32;33.50;;;13.90;;
56581;SDS011;42463;52.214;21.238;2022-12-20T04:52:57;34.30;;;14.70;;
56581;SDS011;42463;52.214;21.238;2022-12-20T04:55:39;35.40;;;15.00;;
56581;SDS011;42463;52.214;21.238;2022-12-20T04:58:04;32.70;;;13.10;;
56581;SDS011;42463;52.214;21.238;2022-12-20T05:00:30;33.70;;;13.60;;
56581;SDS011;42463;52.214;21.238;2022-12-20T05:03:01;31.50;;;14.80;;
56581;SDS011;42463;52.214;21.238;2022-12-20T05:05:26;31.00;;;13.20;;
56581;SDS011;42463;52.214;21.238;2022-12-20T05:07:51;28.80;;;12.00;;
56581;SDS011;42463;52.214;21.238;2022-12-20T05:10:18;29.00;;;14.00;;
56581;SDS011;42463;52.214;21.238;2022-12-20T05:16:12;28.60;;;13.10;;
56581;SDS011;42463;52.214;21.238;2022-12-20T05:18:38;32.00;;;13.30;;
56581;SDS011;42463;52.214;21.238;2022-12-20T05:21:03;31.70;;;13.10;;
56581;SDS011;42463;52.214;21.238;2022-12-20T05:23:47;31.90;;;13.80;;
56581;SDS011;42463;52.214;21.238;2022-12-20T05:26:53;32.10;;;14.10;;
56581;SDS011;42463;52.214;21.238;2022-12-20T05:29:18;27.40;;;12.40;;
56581;SDS011;42463;52.214;21.238;2022-12-20T05:31:43;26.10;;;12.10;;
56581;SDS011;42463;52.214;21.238;2022-12-20T05:34:10;27.80;;;12.50;;
56581;SDS011;42463;52.214;21.238;2022-12-20T05:36:36;33.00;;;13.50;;
56581;SDS011;42463;52.214;21.238;2022-12-20T05:39:01;34.40;;;14.30;;
56581;SDS011;42463;52.214;21.238;2022-12-20T05:41:28;34.40;;;14.80;;
56581;SDS011;42463;52.214;21.238;2022-12-20T05:44:01;30.40;;;13.60;;
56581;SDS011;42463;52.214;21.238;2022-12-20T05:46:43;28.20;;;12.70;;
56581;SDS011;42463;52.214;21.238;2022-12-20T05:49:12;31.50;;;13.20;;
56581;SDS011;42463;52.214;21.238;2022-12-20T05:51:43;32.70;;;14.00;;
56581;SDS011;42463;52.214;21.238;2022-12-20T05:54:20;31.40;;;13.10;;
56581;SDS011;42463;52.214;21.238;2022-12-20T05:57:12;31.40;;;13.30;;
56581;SDS011;42463;52.214;21.238;2022-12-20T05:59:37;36.20;;;15.20;;
56581;SDS011;42463;52.214;21.238;2022-12-20T06:02:11;29.10;;;12.60;;
56581;SDS011;42463;52.214;21.238;2022-12-20T06:04:37;24.30;;;11.90;;
56581;SDS011;42463;52.214;21.238;2022-12-20T06:07:10;26.10;;;11.10;;
56581;SDS011;42463;52.214;21.238;2022-12-20T06:09:36;27.00;;;12.80;;
56581;SDS011;42463;52.214;21.238;2022-12-20T06:12:06;28.90;;;12.00;;
56581;SDS011;42463;52.214;21.238;2022-12-20T06:14:31;29.60;;;12.80;;
56581;SDS011;42463;52.214;21.238;2022-12-20T06:16:56;27.00;;;11.70;;
56581;SDS011;42463;52.214;21.238;2022-12-20T06:19:26;28.10;;;12.90;;
56581;SDS011;42463;52.214;21.238;2022-12-20T06:21:52;29.00;;;12.60;;
56581;SDS011;42463;52.214;21.238;2022-12-20T06:26:50;29.70;;;12.40;;
56581;SDS011;42463;52.214;21.238;2022-12-20T06:29:22;32.10;;;12.50;;
56581;SDS011;42463;52.214;21.238;2022-12-20T06:31:54;32.80;;;13.00;;
56581;SDS011;42463;52.214;21.238;2022-12-20T06:34:23;26.90;;;11.90;;
56581;SDS011;42463;52.214;21.238;2022-12-20T06:36:57;23.60;;;10.00;;
56581;SDS011;42463;52.214;21.238;2022-12-20T06:39:27;25.10;;;12.30;;
56581;SDS011;42463;52.214;21.238;2022-12-20T06:42:04;24.10;;;11.10;;
56581;SDS011;42463;52.214;21.238;2022-12-20T06:44:34;25.30;;;11.00;;
56581;SDS011;42463;52.214;21.238;2022-12-20T06:47:00;27.50;;;12.40;;
56581;SDS011;42463;52.214;21.238;2022-12-20T06:49:26;22.00;;;10.50;;
56581;SDS011;42463;52.214;21.238;2022-12-20T06:51:54;23.00;;;10.50;;
56581;SDS011;42463;52.214;21.238;2022-12-20T06:57:58;25.90;;;11.80;;
56581;SDS011;42463;52.214;21.238;2022-12-20T07:00:26;26.50;;;13.60;;
56581;SDS011;42463;52.214;21.238;2022-12-20T07:02:58;27.10;;;12.10;;
56581;SDS011;42463;52.214;21.238;2022-12-20T07:05:33;26.80;;;13.30;;
56581;SDS011;42463;52.214;21.238;2022-12-20T07:07:58;25.40;;;12.00;;
56581;SDS011;42463;52.214;21.238;2022-12-20T07:10:27;24.00;;;11.80;;
56581;SDS011;42463;52.214;21.238;2022-12-20T07:12:52;27.40;;;11.90;;
56581;SDS011;42463;52.214;21.238;2022-12-20T07:15:18;23.50;;;11.20;;
56581;SDS011;42463;52.214;21.238;2022-12-20T07:17:44;22.00;;;10.10;;
56581;SDS011;42463;52.214;21.238;2022-12-20T07:20:11;20.60;;;8.90;;
56581;SDS011;42463;52.214;21.238;2022-12-20T07:25:53;23.70;;;9.80;;
56581;SDS011;42463;52.214;21.238;2022-12-20T07:28:18;24.60;;;11.40;;
56581;SDS011;42463;52.214;21.238;2022-12-20T07:30:45;24.40;;;11.30;;
56581;SDS011;42463;52.214;21.238;2022-12-20T07:33:17;25.20;;;11.20;;
56581;SDS011;42463;52.214;21.238;2022-12-20T07:35:43;24.40;;;11.40;;
56581;SDS011;42463;52.214;21.238;2022-12-20T07:38:08;23.40;;;9.70;;
56581;SDS011;42463;52.214;21.238;2022-12-20T07:40:33;27.80;;;11.10;;
56581;SDS011;42463;52.214;21.238;2022-12-20T07:46:04;23.70;;;10.90;;
56581;SDS011;42463;52.214;21.238;2022-12-20T07:48:40;26.40;;;10.30;;
56581;SDS011;42463;52.214;21.238;2022-12-20T07:51:09;23.90;;;11.00;;
56581;SDS011;42463;52.214;21.238;2022-12-20T07:53:43;23.80;;;10.70;;
56581;SDS011;42463;52.214;21.238;2022-12-20T07:56:10;24.70;;;12.10;;
56581;SDS011;42463;52.214;21.238;2022-12-20T07:58:42;29.10;;;12.80;;
56581;SDS011;42463;52.214;21.238;2022-12-20T08:01:25;26.40;;;10.10;;
56581;SDS011;42463;52.214;21.238;2022-12-20T08:03:51;28.70;;;12.00;;
56581;SDS011;42463;52.214;21.238;2022-12-20T08:06:25;24.60;;;10.60;;
56581;SDS011;42463;52.214;21.238;2022-12-20T08:08:53;23.00;;;11.10;;
56581;SDS011;42463;52.214;21.238;2022-12-20T08:11:22;27.50;;;12.20;;
56581;SDS011;42463;52.214;21.238;2022-12-20T08:13:51;23.50;;;11.70;;
56581;SDS011;42463;52.214;21.238;2022-12-20T08:16:20;27.20;;;12.10;;
56581;SDS011;42463;52.214;21.238;2022-12-20T08:18:47;26.70;;;12.90;;
56581;SDS011;42463;52.214;21.238;2022-12-20T08:21:15;23.90;;;12.00;;
56581;SDS011;42463;52.214;21.238;2022-12-20T08:23:40;26.80;;;11.40;;
56581;SDS011;42463;52.214;21.238;2022-12-20T08:26:04;29.30;;;13.00;;
56581;SDS011;42463;52.214;21.238;2022-12-20T08:28:29;25.70;;;13.00;;
56581;SDS011;42463;52.214;21.238;2022-12-20T08:31:00;27.10;;;12.10;;
56581;SDS011;42463;52.214;21.238;2022-12-20T08:33:26;27.30;;;12.40;;
56581;SDS011;42463;52.214;21.238;2022-12-20T08:35:57;27.50;;;12.30;;
56581;SDS011;42463;52.214;21.238;2022-12-20T08:38:23;30.10;;;13.20;;
56581;SDS011;42463;52.214;21.238;2022-12-20T08:40:51;25.80;;;11.40;;
56581;SDS011;42463;52.214;21.238;2022-12-20T08:43:16;29.30;;;12.80;;
56581;SDS011;42463;52.214;21.238;2022-12-20T08:45:43;27.80;;;11.80;;
56581;SDS011;42463;52.214;21.238;2022-12-20T08:48:13;29.20;;;13.10;;
56581;SDS011;42463;52.214;21.238;2022-12-20T08:50:39;28.10;;;12.60;;
56581;SDS011;42463;52.214;21.238;2022-12-20T08:53:04;30.30;;;12.90;;
56581;SDS011;42463;52.214;21.238;2022-12-20T08:55:28;26.90;;;11.80;;
56581;SDS011;42463;52.214;21.238;2022-12-20T08:57:53;25.10;;;12.10;;
56581;SDS011;42463;52.214;21.238;2022-12-20T09:00:20;30.60;;;13.20;;
56581;SDS011;42463;52.214;21.238;2022-12-20T09:02:45;30.10;;;13.80;;
56581;SDS011;42463;52.214;21.238;2022-12-20T09:05:18;28.40;;;13.00;;
56581;SDS011;42463;52.214;21.238;2022-12-20T09:07:45;28.50;;;12.90;;
56581;SDS011;42463;52.214;21.238;2022-12-20T09:10:13;25.20;;;11.60;;
56581;SDS011;42463;52.214;21.238;2022-12-20T09:12:38;29.30;;;13.70;;
56581;SDS011;42463;52.214;21.238;2022-12-20T09:15:03;28.30;;;12.60;;
56581;SDS011;42463;52.214;21.238;2022-12-20T09:17:30;27.30;;;11.90;;
56581;SDS011;42463;52.214;21.238;2022-12-20T09:19:55;26.70;;;12.20;;
56581;SDS011;42463;52.214;21.238;2022-12-20T09:22:20;23.00;;;11.60;;
56581;SDS011;42463;52.214;21.238;2022-12-20T09:24:48;25.90;;;11.40;;
56581;SDS011;42463;52.214;21.238;2022-12-20T09:27:13;26.30;;;12.00;;
56581;SDS011;42463;52.214;21.238;2022-12-20T09:29:39;29.20;;;13.00;;
56581;SDS011;42463;52.214;21.238;2022-12-20T09:32:05;29.70;;;13.90;;
56581;SDS011;42463;52.214;21.238;2022-12-20T09:34:30;28.40;;;14.20;;
56581;SDS011;42463;52.214;21.238;2022-12-20T09:36:55;27.90;;;13.30;;
56581;SDS011;42463;52.214;21.238;2022-12-20T09:39:21;27.60;;;13.00;;
56581;SDS011;42463;52.214;21.238;2022-12-20T09:41:48;27.20;;;13.30;;
56581;SDS011;42463;52.214;21.238;2022-12-20T09:44:15;25.60;;;11.80;;
56581;SDS011;42463;52.214;21.238;2022-12-20T09:46:47;27.70;;;13.10;;
56581;SDS011;42463;52.214;21.238;2022-12-20T09:49:16;29.20;;;13.30;;
56581;SDS011;42463;52.214;21.238;2022-12-20T09:51:54;30.30;;;13.10;;
56581;SDS011;42463;52.214;21.238;2022-12-20T09:54:40;30.40;;;14.00;;
56581;SDS011;42463;52.214;21.238;2022-12-20T09:57:16;31.50;;;14.30;;
56581;SDS011;42463;52.214;21.238;2022-12-20T09:59:51;31.30;;;14.50;;
56581;SDS011;42463;52.214;21.238;2022-12-20T10:02:20;30.70;;;13.70;;
56581;SDS011;42463;52.214;21.238;2022-12-20T10:04:47;27.70;;;13.00;;
56581;SDS011;42463;52.214;21.238;2022-12-20T10:07:16;30.40;;;13.20;;
56581;SDS011;42463;52.214;21.238;2022-12-20T10:12:47;25.40;;;12.80;;
56581;SDS011;42463;52.214;21.238;2022-12-20T10:15:23;33.20;;;13.90;;
56581;SDS011;42463;52.214;21.238;2022-12-20T10:18:01;33.60;;;14.70;;
56581;SDS011;42463;52.214;21.238;2022-12-20T10:20:48;34.10;;;15.10;;
56581;SDS011;42463;52.214;21.238;2022-12-20T10:23:20;28.30;;;12.80;;
56581;SDS011;42463;52.214;21.238;2022-12-20T10:25:50;32.40;;;15.00;;
56581;SDS011;42463;52.214;21.238;2022-12-20T10:28:17;26.40;;;12.80;;
56581;SDS011;42463;52.214;21.238;2022-12-20T10:30:47;30.50;;;13.60;;
56581;SDS011;42463;52.214;21.238;2022-12-20T10:33:15;27.70;;;14.40;;
56581;SDS011;42463;52.214;21.238;2022-12-20T10:35:49;28.60;;;13.60;;
56581;SDS011;42463;52.214;21.238;2022-12-20T10:38:15;28.80;;;13.20;;
56581;SDS011;42463;52.214;21.238;2022-12-20T10:40:43;26.50;;;13.10;;
56581;SDS011;42463;52.214;21.238;2022-12-20T10:43:13;30.40;;;15.60;;
56581;SDS011;42463;52.214;21.238;2022-12-20T10:45:41;27.80;;;14.50;;
56581;SDS011;42463;52.214;21.238;2022-12-20T10:48:24;25.50;;;14.50;;
56581;SDS011;42463;52.214;21.238;2022-12-20T10:50:56;27.80;;;13.20;;
56581;SDS011;42463;52.214;21.238;2022-12-20T10:53:25;25.90;;;14.00;;
56581;SDS011;42463;52.214;21.238;2022-12-20T10:56:06;29.60;;;14.70;;
56581;SDS011;42463;52.214;21.238;2022-12-20T10:58:56;30.30;;;13.80;;
56581;SDS011;42463;52.214;21.238;2022-12-20T11:01:27;23.50;;;13.50;;
56581;SDS011;42463;52.214;21.238;2022-12-20T11:03:58;29.20;;;15.10;;
56581;SDS011;42463;52.214;21.238;2022-12-20T11:06:27;32.90;;;15.90;;
56581;SDS011;42463;52.214;21.238;2022-12-20T11:09:22;25.40;;;13.10;;
56581;SDS011;42463;52.214;21.238;2022-12-20T11:12:00;29.10;;;15.10;;
56581;SDS011;42463;52.214;21.238;2022-12-20T11:14:28;26.70;;;13.70;;
56581;SDS011;42463;52.214;21.238;2022-12-20T11:16:57;29.30;;;14.40;;
56581;SDS011;42463;52.214;21.238;2022-12-20T11:19:35;29.40;;;14.40;;
56581;SDS011;42463;52.214;21.238;2022-12-20T11:22:13;29.60;;;14.60;;
56581;SDS011;42463;52.214;21.238;2022-12-20T11:24:48;25.10;;;12.20;;
56581;SDS011;42463;52.214;21.238;2022-12-20T11:27:26;30.10;;;14.70;;
56581;SDS011;42463;52.214;21.238;2022-12-20T11:30:07;24.20;;;12.30;;
56581;SDS011;42463;52.214;21.238;2022-12-20T11:32:54;25.50;;;13.10;;
56581;SDS011;42463;52.214;21.238;2022-12-20T11:35:36;35.20;;;16.70;;
56581;SDS011;42463;52.214;21.238;2022-12-20T11:38:16;33.00;;;15.90;;
56581;SDS011;42463;52.214;21.238;2022-12-20T11:41:04;31.30;;;15.50;;
56581;SDS011;42463;52.214;21.238;2022-12-20T11:43:48;34.20;;;16.20;;
56581;SDS011;42463;52.214;21.238;2022-12-20T11:46:29;32.10;;;16.20;;
56581;SDS011;42463;52.214;21.238;2022-12-20T11:49:11;33.30;;;15.20;;
56581;SDS011;42463;52.214;21.238;2022-12-20T11:51:47;32.30;;;14.30;;
56581;SDS011;42463;52.214;21.238;2022-12-20T11:54:24;34.20;;;15.00;;
56581;SDS011;42463;52.214;21.238;2022-12-20T11:56:56;36.90;;;16.10;;
56581;SDS011;42463;52.214;21.238;2022-12-20T11:59:28;35.80;;;15.50;;
56581;SDS011;42463;52.214;21.238;2022-12-20T12:02:01;27.60;;;13.00;;
56581;SDS011;42463;52.214;21.238;2022-12-20T12:04:33;32.80;;;15.10;;
56581;SDS011;42463;52.214;21.238;2022-12-20T12:07:07;33.40;;;15.40;;
56581;SDS011;42463;52.214;21.238;2022-12-20T12:09:44;34.30;;;14.70;;
56581;SDS011;42463;52.214;21.238;2022-12-20T12:12:22;34.50;;;16.30;;
56581;SDS011;42463;52.214;21.238;2022-12-20T12:15:17;25.20;;;12.90;;
56581;SDS011;42463;52.214;21.238;2022-12-20T12:17:53;34.20;;;16.00;;
56581;SDS011;42463;52.214;21.238;2022-12-20T12:20:24;27.20;;;13.20;;
56581;SDS011;42463;52.214;21.238;2022-12-20T12:23:00;33.20;;;14.90;;
56581;SDS011;42463;52.214;21.238;2022-12-20T12:25:30;31.80;;;14.40;;
56581;SDS011;42463;52.214;21.238;2022-12-20T12:27:58;36.10;;;15.60;;
56581;SDS011;42463;52.214;21.238;2022-12-20T12:30:28;33.70;;;16.20;;
56581;SDS011;42463;52.214;21.238;2022-12-20T12:33:09;30.80;;;13.90;;
56581;SDS011;42463;52.214;21.238;2022-12-20T12:35:41;28.80;;;13.90;;
56581;SDS011;42463;52.214;21.238;2022-12-20T12:38:40;31.50;;;15.40;;
56581;SDS011;42463;52.214;21.238;2022-12-20T12:41:37;29.50;;;14.40;;
56581;SDS011;42463;52.214;21.238;2022-12-20T12:44:36;36.50;;;15.30;;
56581;SDS011;42463;52.214;21.238;2022-12-20T12:47:10;35.20;;;15.60;;
56581;SDS011;42463;52.214;21.238;2022-12-20T12:49:40;33.60;;;14.70;;
56581;SDS011;42463;52.214;21.238;2022-12-20T12:52:22;26.80;;;13.20;;
56581;SDS011;42463;52.214;21.238;2022-12-20T12:55:05;34.80;;;16.00;;
56581;SDS011;42463;52.214;21.238;2022-12-20T13:01:04;29.80;;;13.70;;
56581;SDS011;42463;52.214;21.238;2022-12-20T13:03:38;32.50;;;15.00;;
56581;SDS011;42463;52.214;21.238;2022-12-20T13:09:38;31.30;;;15.20;;
56581;SDS011;42463;52.214;21.238;2022-12-20T13:18:25;33.80;;;16.00;;
56581;SDS011;42463;52.214;21.238;2022-12-20T13:27:38;31.00;;;16.10;;
56581;SDS011;42463;52.214;21.238;2022-12-20T13:39:16;33.60;;;15.00;;
56581;SDS011;42463;52.214;21.238;2022-12-20T13:45:05;38.80;;;17.40;;
56581;SDS011;42463;52.214;21.238;2022-12-20T13:47:39;36.70;;;16.50;;
56581;SDS011;42463;52.214;21.238;2022-12-20T13:53:13;39.40;;;16.40;;
56581;SDS011;42463;52.214;21.238;2022-12-20T13:59:11;39.20;;;17.50;;
56581;SDS011;42463;52.214;21.238;2022-12-20T14:02:10;34.10;;;16.10;;
56581;SDS011;42463;52.214;21.238;2022-12-20T14:04:45;33.90;;;14.90;;
56581;SDS011;42463;52.214;21.238;2022-12-20T14:07:50;35.60;;;16.70;;
56581;SDS011;42463;52.214;21.238;2022-12-20T14:10:39;33.90;;;16.00;;
56581;SDS011;42463;52.214;21.238;2022-12-20T14:16:09;35.90;;;15.90;;
56581;SDS011;42463;52.214;21.238;2022-12-20T14:19:11;36.20;;;17.10;;
56581;SDS011;42463;52.214;21.238;2022-12-20T14:21:47;37.90;;;16.70;;
56581;SDS011;42463;52.214;21.238;2022-12-20T14:28:05;39.70;;;18.80;;
56581;SDS011;42463;52.214;21.238;2022-12-20T14:30:45;36.50;;;17.80;;
56581;SDS011;42463;52.214;21.238;2022-12-20T14:33:24;41.40;;;18.10;;
56581;SDS011;42463;52.214;21.238;2022-12-20T14:36:39;36.90;;;17.80;;
56581;SDS011;42463;52.214;21.238;2022-12-20T14:39:23;35.70;;;17.20;;
56581;SDS011;42463;52.214;21.238;2022-12-20T14:41:56;39.50;;;17.20;;
56581;SDS011;42463;52.214;21.238;2022-12-20T14:50:51;33.90;;;15.30;;
56581;SDS011;42463;52.214;21.238;2022-12-20T14:53:27;36.00;;;17.60;;
56581;SDS011;42463;52.214;21.238;2022-12-20T14:56:28;31.80;;;14.30;;
56581;SDS011;42463;52.214;21.238;2022-12-20T14:59:04;35.50;;;17.30;;
56581;SDS011;42463;52.214;21.238;2022-12-20T15:08:36;37.60;;;18.30;;
56581;SDS011;42463;52.214;21.238;2022-12-20T15:11:12;37.40;;;18.00;;
56581;SDS011;42463;52.214;21.238;2022-12-20T15:13:43;39.40;;;17.10;;
56581;SDS011;42463;52.214;21.238;2022-12-20T15:16:14;46.70;;;21.00;;
56581;SDS011;42463;52.214;21.238;2022-12-20T15:18:44;39.90;;;18.10;;
56581;SDS011;42463;52.214;21.238;2022-12-20T15:21:12;38.10;;;17.80;;
56581;SDS011;42463;52.214;21.238;2022-12-20T15:24:05;46.20;;;21.80;;
56581;SDS011;42463;52.214;21.238;2022-12-20T15:26:50;36.90;;;17.60;;
56581;SDS011;42463;52.214;21.238;2022-12-20T15:29:27;32.50;;;17.50;;
56581;SDS011;42463;52.214;21.238;2022-12-20T15:31:57;33.20;;;16.50;;
56581;SDS011;42463;52.214;21.238;2022-12-20T15:34:47;42.80;;;20.50;;
56581;SDS011;42463;52.214;21.238;2022-12-20T15:37:14;43.90;;;21.20;;
56581;SDS011;42463;52.214;21.238;2022-12-20T15:39:45;40.60;;;18.30;;
56581;SDS011;42463;52.214;21.238;2022-12-20T15:42:14;44.30;;;19.90;;
56581;SDS011;42463;52.214;21.238;2022-12-20T15:44:59;40.90;;;19.60;;
56581;SDS011;42463;52.214;21.238;2022-12-20T15:48:02;38.00;;;18.70;;
56581;SDS011;42463;52.214;21.238;2022-12-20T15:50:36;44.60;;;20.40;;
56581;SDS011;42463;52.214;21.238;2022-12-20T15:59:43;43.10;;;19.70;;
56581;SDS011;42463;52.214;21.238;2022-12-20T16:02:19;46.10;;;20.80;;